Time;durP1;ratioP1;P1;durP2;ratioP2;P2;SDS_P1;SDS_P2;PMS_P1;PMS_P2;Temp;Humidity;BMP_temperature;BMP_pressure;BME280_temperature;BME280_humidity;BME280_pressure;Samples;Min_cycle;Max_cycle;Signal;HPM_P1;HPM_P2
2023/08/01 00:02:17;;;;;;;1.10;1.10;;;18.90;99.90;;;19.16;nan;99431.69;4993471;28;20653;-67
2023/08/01 00:04:44;;;;;;;4.07;1.90;;;18.80;99.90;;;19.10;nan;99427.13;4991670;28;20670;-66
2023/08/01 00:07:11;;;;;;;1.60;1.20;;;18.70;99.90;;;19.07;nan;99418.78;4992830;28;20662;-66
2023/08/01 00:09:37;;;;;;;1.50;1.40;;;18.70;99.90;;;19.03;nan;99413.06;4991131;28;20642;-66
2023/08/01 00:12:05;;;;;;;1.90;1.47;;;18.60;99.90;;;19.05;nan;99404.94;4993882;28;20626;-66
2023/08/01 00:14:32;;;;;;;1.47;1.37;;;18.70;99.90;;;19.08;nan;99394.00;4991592;28;21052;-66
2023/08/01 00:16:59;;;;;;;2.20;1.30;;;18.70;99.90;;;19.08;nan;99383.41;4993385;28;20671;-66
2023/08/01 00:19:27;;;;;;;1.53;1.30;;;18.70;99.90;;;19.06;nan;99372.22;4990783;28;20682;-64
2023/08/01 00:21:54;;;;;;;1.57;1.47;;;18.70;99.90;;;19.09;nan;99374.47;4993353;28;21179;-65
2023/08/01 00:24:21;;;;;;;2.00;1.37;;;18.70;99.90;;;19.06;nan;99374.88;4993040;28;20669;-66
2023/08/01 00:26:48;;;;;;;1.70;1.60;;;18.70;99.90;;;19.02;nan;99363.03;4993454;28;20658;-65
2023/08/01 00:29:15;;;;;;;1.90;0.90;;;18.70;99.90;;;18.94;nan;99365.81;4993489;28;21203;-67
2023/08/01 00:31:42;;;;;;;4.40;1.00;;;18.60;99.90;;;18.93;nan;99353.63;4991943;28;20638;-65
2023/08/01 00:34:09;;;;;;;1.33;1.23;;;18.60;99.90;;;18.88;nan;99350.75;4996739;28;20693;-67
2023/08/01 00:36:36;;;;;;;1.67;1.57;;;18.50;99.90;;;18.86;nan;99347.50;4993159;28;21243;-65
2023/08/01 00:39:03;;;;;;;1.67;1.57;;;18.50;99.90;;;18.84;nan;99333.66;4996978;28;20646;-65
2023/08/01 00:41:30;;;;;;;3.80;1.27;;;18.50;99.90;;;18.80;nan;99316.56;4992729;28;20630;-66
2023/08/01 00:43:57;;;;;;;2.10;0.97;;;18.40;99.90;;;18.72;nan;99309.59;4991166;28;20645;-65
2023/08/01 00:46:24;;;;;;;1.10;1.10;;;18.40;99.90;;;18.70;nan;99301.03;4992942;28;20677;-65
2023/08/01 00:48:53;;;;;;;0.93;0.60;;;18.30;99.90;;;18.64;nan;99295.72;4981367;28;20638;-67
2023/08/01 00:51:20;;;;;;;1.37;1.37;;;18.30;99.90;;;18.65;nan;99292.06;5007695;28;21301;-66
2023/08/01 00:53:47;;;;;;;1.47;0.90;;;18.30;99.90;;;18.67;nan;99266.28;4990949;28;20643;-64
2023/08/01 00:56:14;;;;;;;1.97;1.57;;;18.40;99.90;;;18.62;nan;99282.72;4991325;28;20649;-67
2023/08/01 00:58:41;;;;;;;1.87;1.57;;;18.20;99.90;;;18.60;nan;99271.53;4991282;28;20626;-65
2023/08/01 01:01:08;;;;;;;1.60;1.50;;;18.20;99.90;;;18.60;nan;99287.38;4990871;28;20638;-66
2023/08/01 01:03:37;;;;;;;1.93;1.23;;;18.20;99.90;;;18.63;nan;99288.81;4991791;28;20634;-66
2023/08/01 01:06:17;;;;;;;2.03;1.83;;;18.20;99.90;;;18.63;nan;99294.09;4982124;28;20670;-67
2023/08/01 01:08:45;;;;;;;2.40;1.53;;;18.20;99.90;;;18.68;nan;99302.25;4990718;28;21202;-65
2023/08/01 01:11:11;;;;;;;2.90;1.40;;;18.30;99.90;;;18.69;nan;99303.88;4990486;28;20653;-67
2023/08/01 01:13:38;;;;;;;6.03;1.97;;;18.30;99.90;;;18.74;nan;99299.63;4988616;28;20622;-66
2023/08/01 01:16:05;;;;;;;1.57;1.50;;;18.30;99.90;;;18.77;nan;99301.91;4990066;28;20634;-65
2023/08/01 01:18:32;;;;;;;1.70;1.47;;;18.40;99.90;;;18.83;nan;99289.72;4989198;28;20669;-66
2023/08/01 01:20:59;;;;;;;1.90;1.60;;;18.40;99.90;;;18.83;nan;99300.31;4987871;28;21250;-65
2023/08/01 01:23:28;;;;;;;1.90;1.80;;;18.50;99.90;;;18.87;nan;99302.34;4988803;28;20695;-65
2023/08/01 01:25:57;;;;;;;1.80;1.67;;;18.50;99.90;;;18.92;nan;99296.50;4987368;28;20674;-66
2023/08/01 01:28:26;;;;;;;1.37;1.33;;;18.50;99.90;;;18.95;nan;99304.03;4991577;28;21039;-66
2023/08/01 01:30:55;;;;;;;1.50;1.40;;;18.60;99.90;;;18.95;nan;99304.03;4991946;28;21179;-65
2023/08/01 01:33:22;;;;;;;1.97;1.30;;;18.60;99.90;;;18.95;nan;99298.75;4992892;28;20642;-66
2023/08/01 01:35:49;;;;;;;2.70;1.90;;;18.60;99.90;;;18.93;nan;99306.84;4986572;28;21001;-65
2023/08/01 01:38:17;;;;;;;1.70;1.60;;;18.60;99.90;;;18.92;nan;99326.38;4987697;28;20989;-66
2023/08/01 01:40:44;;;;;;;1.67;1.57;;;18.50;99.90;;;18.91;nan;99308.09;4995927;28;21206;-66
2023/08/01 01:43:10;;;;;;;3.43;1.67;;;18.60;99.90;;;18.95;nan;99309.34;4995765;28;20638;-68
2023/08/01 01:45:37;;;;;;;1.80;1.67;;;18.60;99.90;;;18.94;nan;99289.19;4995076;28;21277;-65
2023/08/01 01:48:04;;;;;;;3.23;1.73;;;18.50;99.90;;;18.91;nan;99274.53;4990088;28;20658;-65
2023/08/01 01:50:31;;;;;;;2.57;1.83;;;18.50;99.90;;;18.88;nan;99280.22;4991985;28;20642;-67
2023/08/01 01:52:58;;;;;;;1.57;1.47;;;18.50;99.90;;;18.89;nan;99265.97;4997076;28;20639;-68
2023/08/01 01:55:25;;;;;;;2.13;1.93;;;18.50;99.90;;;18.90;nan;99264.97;4988281;28;20652;-65
2023/08/01 01:57:52;;;;;;;1.83;1.43;;;18.50;99.90;;;18.91;nan;99268.44;4995099;28;20662;-66
2023/08/01 02:00:20;;;;;;;2.27;2.10;;;18.50;99.90;;;18.96;nan;99266.00;4990853;28;21332;-65
2023/08/01 02:02:47;;;;;;;2.23;1.60;;;18.50;99.90;;;19.00;nan;99256.69;4995788;28;20643;-67
2023/08/01 02:05:14;;;;;;;1.97;1.67;;;18.60;99.90;;;19.01;nan;99256.50;4995347;28;20669;-65
2023/08/01 02:07:41;;;;;;;1.97;1.87;;;18.70;99.90;;;19.05;nan;99246.34;4989933;28;20693;-66
2023/08/01 02:10:08;;;;;;;2.37;1.87;;;18.70;99.90;;;19.12;nan;99247.19;4990486;28;20638;-66
2023/08/01 02:12:35;;;;;;;1.83;1.70;;;18.70;99.90;;;19.12;nan;99242.69;4984794;28;21192;-66
2023/08/01 02:15:04;;;;;;;1.47;1.40;;;18.80;99.90;;;19.15;nan;99228.25;4988362;28;20626;-67
2023/08/01 02:17:31;;;;;;;1.53;1.23;;;18.80;99.90;;;19.17;nan;99229.72;4990569;28;20661;-66
2023/08/01 02:19:58;;;;;;;1.93;1.70;;;18.80;99.90;;;19.14;nan;99214.25;4994438;28;20640;-66
2023/08/01 02:22:26;;;;;;;2.33;1.60;;;18.80;99.90;;;19.15;nan;99210.59;4991625;28;20653;-66
2023/08/01 02:24:53;;;;;;;6.53;1.87;;;18.80;99.90;;;19.17;nan;99205.09;4999082;28;20666;-66
2023/08/01 02:27:20;;;;;;;2.40;2.10;;;18.80;99.90;;;19.13;nan;99204.69;4989927;28;21274;-66
2023/08/01 02:29:49;;;;;;;2.30;1.63;;;18.80;99.90;;;19.13;nan;99215.25;4988782;28;20642;-66
2023/08/01 02:32:17;;;;;;;2.40;2.10;;;18.80;99.90;;;19.12;nan;99210.19;4993779;28;20630;-66
2023/08/01 02:34:44;;;;;;;0.93;0.93;;;18.80;99.90;;;19.09;nan;99216.66;4978120;28;20638;-63
2023/08/01 02:37:11;;;;;;;1.50;1.40;;;18.80;99.90;;;19.09;nan;99214.03;4990347;28;20665;-68
2023/08/01 02:39:38;;;;;;;2.30;1.60;;;18.70;99.90;;;19.08;nan;99211.59;4997303;28;21211;-65
2023/08/01 02:42:05;;;;;;;1.60;1.50;;;18.70;99.90;;;19.09;nan;99205.28;4993346;28;21074;-65
2023/08/01 02:44:32;;;;;;;1.33;1.17;;;18.70;99.90;;;19.07;nan;99196.72;4991252;28;20643;-65
2023/08/01 02:46:59;;;;;;;2.50;1.77;;;18.70;99.90;;;19.06;nan;99195.13;4994504;28;20662;-66
2023/08/01 02:49:26;;;;;;;1.53;1.43;;;18.70;99.90;;;19.04;nan;99187.38;4987943;28;20646;-66
2023/08/01 02:51:53;;;;;;;1.40;1.23;;;18.70;99.90;;;19.05;nan;99178.44;4984138;28;20653;-64
2023/08/01 02:54:20;;;;;;;1.00;1.00;;;18.70;99.90;;;19.04;nan;99178.59;4989300;28;20638;-65
2023/08/01 02:56:47;;;;;;;2.37;1.77;;;18.70;99.90;;;19.02;nan;99170.06;4995854;28;21035;-66
2023/08/01 02:59:14;;;;;;;1.90;1.80;;;18.70;99.90;;;19.00;nan;99165.00;4989050;28;21215;-64
2023/08/01 03:01:41;;;;;;;2.03;1.83;;;18.70;99.90;;;19.01;nan;99171.09;4989742;28;20681;-64
2023/08/01 03:04:08;;;;;;;1.50;1.33;;;18.70;99.90;;;19.01;nan;99171.91;4986141;28;20634;-64
2023/08/01 03:06:35;;;;;;;5.13;1.63;;;18.60;99.90;;;19.03;nan;99166.41;4989627;28;20677;-64
2023/08/01 03:09:02;;;;;;;1.13;1.03;;;18.70;99.90;;;19.06;nan;99171.31;4988082;28;20626;-65
2023/08/01 03:11:29;;;;;;;1.33;1.30;;;18.70;99.90;;;19.07;nan;99170.28;4990315;28;20629;-66
2023/08/01 03:13:56;;;;;;;1.50;1.40;;;18.70;99.90;;;19.09;nan;99163.78;4987746;28;20643;-65
2023/08/01 03:16:23;;;;;;;2.20;1.70;;;18.70;99.90;;;19.07;nan;99162.38;4987964;28;20662;-65
2023/08/01 03:18:50;;;;;;;1.33;1.10;;;18.70;99.90;;;19.04;nan;99160.09;4986707;28;21163;-65
2023/08/01 03:21:16;;;;;;;1.10;1.00;;;18.70;99.90;;;19.04;nan;99160.09;4987257;28;20642;-64
2023/08/01 03:23:43;;;;;;;4.30;1.93;;;18.70;99.90;;;19.07;nan;99159.72;4988763;28;21209;-65
2023/08/01 03:26:10;;;;;;;1.70;1.60;;;18.70;99.90;;;19.11;nan;99163.59;4986568;28;20678;-64
2023/08/01 03:28:37;;;;;;;1.63;1.53;;;18.70;99.90;;;19.14;nan;99161.38;5003428;28;20673;-64
2023/08/01 03:31:04;;;;;;;1.30;1.23;;;18.80;99.90;;;19.15;nan;99168.28;4990794;28;20638;-64
2023/08/01 03:33:33;;;;;;;1.10;1.10;;;18.80;99.90;;;19.18;nan;99177.66;4989098;28;20626;-64
2023/08/01 03:36:00;;;;;;;2.43;1.40;;;18.80;99.90;;;19.20;nan;99171.16;4985824;28;20645;-63
2023/08/01 03:38:27;;;;;;;2.03;1.47;;;18.80;99.90;;;19.23;nan;99164.63;4990384;28;21208;-64
2023/08/01 03:40:54;;;;;;;1.80;1.70;;;18.80;99.90;;;19.24;nan;99177.66;4989267;28;20635;-66
2023/08/01 03:43:23;;;;;;;2.20;2.00;;;18.90;99.90;;;19.28;nan;99180.72;4990505;28;20634;-64
2023/08/01 03:45:51;;;;;;;1.73;1.63;;;18.90;99.90;;;19.29;nan;99169.94;4987801;28;21250;-65
2023/08/01 03:48:18;;;;;;;1.80;1.70;;;18.90;99.90;;;19.33;nan;99165.88;4988522;28;20670;-69
2023/08/01 03:50:45;;;;;;;2.00;1.80;;;19.00;99.90;;;19.34;nan;99162.25;4989968;28;20642;-65
2023/08/01 03:53:12;;;;;;;1.90;1.40;;;19.00;99.90;;;19.36;nan;99156.75;4984027;28;20639;-65
2023/08/01 03:55:39;;;;;;;1.77;1.67;;;19.00;99.90;;;19.37;nan;99158.38;4994027;28;20642;-66
2023/08/01 03:58:06;;;;;;;2.10;2.00;;;19.00;99.90;;;19.43;nan;99154.09;4990284;28;21029;-65
2023/08/01 04:00:33;;;;;;;1.57;1.47;;;19.10;99.90;;;19.45;nan;99146.78;4988001;28;21040;-65
2023/08/01 04:03:01;;;;;;;1.20;1.10;;;19.10;99.90;;;19.49;nan;99142.72;4990962;28;20641;-66
2023/08/01 04:05:29;;;;;;;1.40;1.30;;;19.10;99.90;;;19.40;nan;99136.81;4989357;28;20662;-65
2023/08/01 04:07:56;;;;;;;0.80;0.80;;;19.10;99.90;;;19.36;nan;99132.16;4990674;28;21269;-66
2023/08/01 04:10:23;;;;;;;1.43;1.30;;;19.00;99.90;;;19.33;nan;99125.41;4989840;28;20639;-65
2023/08/01 04:12:50;;;;;;;1.70;1.60;;;19.00;99.90;;;19.33;nan;99125.41;4990220;28;21314;-65
2023/08/01 04:15:17;;;;;;;1.20;1.10;;;19.00;99.90;;;19.31;nan;99125.59;4987641;28;20642;-65
2023/08/01 04:17:44;;;;;;;1.70;1.60;;;19.00;99.90;;;19.32;nan;99132.50;4990760;28;20669;-65
2023/08/01 04:20:12;;;;;;;1.60;1.50;;;19.00;99.90;;;19.31;nan;99130.06;4987102;28;20647;-65
2023/08/01 04:22:39;;;;;;;1.10;1.10;;;19.00;99.90;;;19.27;nan;99134.16;4990560;28;20638;-65
2023/08/01 04:25:07;;;;;;;1.40;1.30;;;18.90;99.90;;;19.25;nan;99120.31;4986823;28;20630;-64
2023/08/01 04:27:34;;;;;;;1.10;1.10;;;18.90;99.90;;;19.20;nan;99118.28;4988847;28;20666;-65
2023/08/01 04:30:01;;;;;;;1.70;1.40;;;18.80;99.90;;;19.18;nan;99122.94;4987305;28;20630;-67
2023/08/01 04:32:28;;;;;;;1.03;1.03;;;18.80;99.90;;;19.18;nan;99130.88;4993098;28;21194;-65
2023/08/01 04:34:55;;;;;;;2.23;2.03;;;18.80;99.90;;;19.19;nan;99142.25;4989858;28;20638;-68
2023/08/01 04:37:23;;;;;;;1.40;1.30;;;18.80;99.90;;;19.22;nan;99147.16;4988678;28;20725;-65
2023/08/01 04:39:50;;;;;;;1.20;1.20;;;18.90;99.90;;;19.23;nan;99161.97;4989152;28;21058;-66
2023/08/01 04:42:17;;;;;;;3.70;1.40;;;18.90;99.90;;;19.24;nan;99172.38;4994612;28;20648;-64
2023/08/01 04:44:44;;;;;;;1.10;1.00;;;18.90;99.90;;;19.28;nan;99164.84;4986039;28;20701;-65
2023/08/01 04:47:11;;;;;;;3.63;1.73;;;18.90;99.90;;;19.29;nan;99174.41;4991683;28;20678;-66
2023/08/01 04:49:38;;;;;;;1.23;1.23;;;18.90;99.90;;;19.29;nan;99161.19;4990026;28;20646;-66
2023/08/01 04:52:05;;;;;;;1.57;1.47;;;18.90;99.90;;;19.27;nan;99187.81;4990688;28;20638;-66
2023/08/01 04:54:34;;;;;;;1.20;1.10;;;18.90;99.90;;;19.27;nan;99189.69;4995018;28;20638;-66
2023/08/01 04:57:01;;;;;;;1.47;1.20;;;18.90;99.90;;;19.29;nan;99190.28;4995528;28;20662;-64
2023/08/01 04:59:28;;;;;;;1.83;1.20;;;18.90;99.90;;;19.31;nan;99183.75;4989862;28;20641;-66
2023/08/01 05:01:55;;;;;;;1.57;1.47;;;18.90;99.90;;;19.27;nan;99187.03;4990877;28;20641;-66
2023/08/01 05:04:22;;;;;;;1.23;1.17;;;18.90;99.90;;;19.26;nan;99175.63;4992159;28;20645;-64
2023/08/01 05:06:49;;;;;;;1.13;1.13;;;18.90;99.90;;;19.26;nan;99177.44;4989495;28;20677;-64
2023/08/01 05:09:16;;;;;;;1.07;1.00;;;18.90;99.90;;;19.28;nan;99172.78;5000027;28;20638;-64
2023/08/01 05:11:43;;;;;;;2.43;0.90;;;18.90;99.90;;;19.27;nan;99168.53;4992629;28;20638;-67
2023/08/01 05:14:10;;;;;;;3.03;1.23;;;18.90;99.90;;;19.26;nan;99164.22;4990545;28;20634;-65
2023/08/01 05:16:37;;;;;;;2.03;1.17;;;18.90;99.90;;;19.26;nan;99153.66;4991177;28;20669;-63
2023/08/01 05:19:04;;;;;;;0.97;0.97;;;18.90;99.90;;;19.22;nan;99144.50;4990347;28;20642;-65
2023/08/01 05:21:32;;;;;;;2.10;1.60;;;18.90;99.90;;;19.20;nan;99151.81;4992728;28;20650;-65
2023/08/01 05:23:59;;;;;;;8.23;1.37;;;18.90;99.90;;;19.17;nan;99158.31;4989442;28;20677;-64
2023/08/01 05:26:26;;;;;;;1.53;1.47;;;18.90;99.90;;;19.15;nan;99151.59;4998238;28;21266;-65
2023/08/01 05:28:52;;;;;;;3.17;1.67;;;18.80;99.90;;;19.09;nan;99153.22;4990410;28;20638;-65
2023/08/01 05:31:19;;;;;;;1.60;1.50;;;18.80;99.90;;;19.08;nan;99158.72;5000011;28;20633;-64
2023/08/01 05:33:46;;;;;;;1.37;1.30;;;18.80;99.90;;;19.08;nan;99156.06;4991789;28;21018;-65
2023/08/01 05:36:13;;;;;;;1.63;1.30;;;18.80;99.90;;;19.05;nan;99164.41;4991470;28;20672;-64
2023/08/01 05:38:40;;;;;;;1.53;1.50;;;18.70;99.90;;;19.04;nan;99165.41;4991773;28;20700;-65
2023/08/01 05:41:07;;;;;;;5.07;1.10;;;18.70;99.90;;;19.03;nan;99169.06;4993619;28;20664;-64
2023/08/01 05:43:34;;;;;;;4.77;1.97;;;18.70;99.90;;;18.96;nan;99161.13;4988184;28;20649;-65
2023/08/01 05:46:01;;;;;;;1.33;1.23;;;18.60;99.90;;;18.86;nan;99157.22;4988589;28;20674;-65
2023/08/01 05:48:28;;;;;;;1.63;1.07;;;18.60;99.90;;;18.77;nan;99139.91;4990392;28;20649;-63
2023/08/01 05:50:55;;;;;;;1.50;1.40;;;18.50;99.90;;;18.69;nan;99133.00;4993099;28;20635;-65
2023/08/01 05:53:22;;;;;;;1.43;1.17;;;18.40;99.90;;;18.57;nan;99124.81;4996417;28;20644;-65
2023/08/01 05:55:50;;;;;;;2.17;1.97;;;18.30;99.90;;;18.48;nan;99120.69;4987400;28;20642;-66
2023/08/01 05:58:17;;;;;;;2.20;2.00;;;18.20;99.90;;;18.40;nan;99110.28;4993608;28;20672;-65
2023/08/01 06:00:44;;;;;;;1.07;0.73;;;18.10;99.90;;;18.38;nan;99128.16;4990553;28;20630;-68
2023/08/01 06:03:10;;;;;;;1.90;1.73;;;18.10;99.90;;;18.32;nan;99121.00;4993436;28;20648;-65
2023/08/01 06:05:38;;;;;;;2.53;1.57;;;18.00;99.90;;;18.30;nan;99124.84;4989149;28;20653;-64
2023/08/01 06:08:07;;;;;;;2.40;0.70;;;18.00;99.90;;;18.26;nan;99098.03;4995511;28;20673;-65
2023/08/01 06:10:36;;;;;;;1.40;1.17;;;17.90;99.90;;;18.18;nan;99108.78;4990639;28;20719;-69
2023/08/01 06:13:03;;;;;;;1.03;0.93;;;17.90;99.90;;;18.17;nan;99101.84;4997209;28;21055;-65
2023/08/01 06:15:30;;;;;;;1.67;1.57;;;17.90;99.90;;;18.11;nan;99112.38;4989445;28;20646;-64
2023/08/01 06:17:57;;;;;;;1.83;1.40;;;17.80;99.90;;;18.11;nan;99131.66;4992670;28;20665;-67
2023/08/01 06:20:24;;;;;;;1.57;1.47;;;17.80;99.90;;;18.15;nan;99130.25;4993908;28;20631;-66
2023/08/01 06:22:51;;;;;;;1.50;1.10;;;17.80;99.90;;;18.14;nan;99128.66;4991821;28;20642;-66
2023/08/01 06:25:17;;;;;;;1.90;1.33;;;17.80;99.90;;;18.12;nan;99117.44;4980965;28;21023;-66
2023/08/01 06:27:44;;;;;;;1.23;1.00;;;17.80;99.90;;;18.08;nan;99123.34;4989681;28;20682;-66
2023/08/01 06:30:12;;;;;;;4.70;2.63;;;17.80;99.90;;;18.07;nan;99117.22;4990029;28;20626;-65
2023/08/01 06:32:38;;;;;;;2.23;1.40;;;17.80;99.90;;;18.05;nan;99128.97;4994533;28;20642;-65
2023/08/01 06:35:06;;;;;;;2.73;2.43;;;17.70;99.90;;;18.05;nan;99127.16;4989220;28;22580;-65
2023/08/01 06:37:33;;;;;;;2.00;1.83;;;17.70;99.90;;;18.08;nan;99131.25;4988715;28;21077;-66
2023/08/01 06:40:01;;;;;;;1.80;1.30;;;17.70;99.90;;;18.10;nan;99132.66;4986425;28;21478;-65
2023/08/01 06:42:28;;;;;;;2.67;1.83;;;17.80;99.90;;;18.17;nan;99140.63;4989961;28;20633;-66
2023/08/01 06:44:55;;;;;;;2.27;2.07;;;17.80;99.90;;;18.17;nan;99149.34;4985395;28;20657;-64
2023/08/01 06:47:22;;;;;;;5.10;1.93;;;17.80;99.90;;;18.20;nan;99145.53;4989819;28;21089;-65
2023/08/01 06:49:49;;;;;;;2.00;1.40;;;17.80;99.90;;;18.18;nan;99144.91;4982291;28;20642;-65
2023/08/01 06:52:16;;;;;;;2.23;1.27;;;17.80;99.90;;;18.20;nan;99140.25;4999123;28;20638;-65
2023/08/01 06:54:43;;;;;;;2.97;1.37;;;17.90;99.90;;;18.24;nan;99142.31;4990478;28;20700;-66
2023/08/01 06:57:10;;;;;;;1.60;1.10;;;17.90;99.90;;;18.27;nan;99139.25;4989784;28;20739;-64
2023/08/01 06:59:37;;;;;;;2.20;2.00;;;17.90;99.90;;;18.33;nan;99119.19;4994953;28;20639;-65
2023/08/01 07:02:05;;;;;;;1.20;1.10;;;18.00;99.90;;;18.38;nan;99112.31;4990141;28;21009;-66
2023/08/01 07:04:32;;;;;;;1.13;1.03;;;18.10;99.90;;;18.39;nan;99108.66;4991175;28;20643;-66
2023/08/01 07:06:59;;;;;;;1.03;0.93;;;18.10;99.90;;;18.42;nan;99118.81;4993963;28;20685;-66
2023/08/01 07:09:26;;;;;;;3.50;0.90;;;18.10;99.90;;;18.48;nan;99125.97;5001761;28;20618;-65
2023/08/01 07:11:53;;;;;;;2.87;1.10;;;18.10;99.90;;;18.57;nan;99126.63;4990999;28;21216;-65
2023/08/01 07:14:20;;;;;;;0.87;0.87;;;18.20;99.90;;;18.69;nan;99124.25;4990428;28;21207;-67
2023/08/01 07:16:47;;;;;;;1.57;0.77;;;18.40;99.90;;;18.81;nan;99123.47;4987041;28;20669;-64
2023/08/01 07:19:14;;;;;;;0.83;0.80;;;18.50;99.90;;;18.90;nan;99134.66;4987938;28;20639;-65
2023/08/01 07:21:41;;;;;;;1.17;1.07;;;18.60;99.90;;;18.87;nan;99130.59;4990099;28;20631;-65
2023/08/01 07:24:08;;;;;;;1.50;1.40;;;18.50;99.90;;;18.90;nan;99124.91;4983360;28;20644;-65
2023/08/01 07:26:35;;;;;;;1.20;1.10;;;18.60;99.90;;;18.94;nan;99125.31;4987731;28;20682;-66
2023/08/01 07:29:02;;;;;;;1.03;0.97;;;18.60;99.90;;;18.97;nan;99127.56;4987778;28;20638;-65
2023/08/01 07:31:29;;;;;;;3.30;1.40;;;18.60;99.90;;;19.04;nan;99134.50;4989507;28;20634;-65
2023/08/01 07:33:56;;;;;;;1.00;0.93;;;18.70;99.90;;;19.11;nan;99153.84;4990045;28;20991;-65
2023/08/01 07:36:24;;;;;;;1.10;1.10;;;18.70;99.90;;;19.18;nan;99156.50;4985263;28;20670;-65
2023/08/01 07:38:51;;;;;;;1.00;1.00;;;18.80;99.90;;;19.24;nan;99155.69;4982951;28;21294;-65
2023/08/01 07:41:18;;;;;;;1.50;1.40;;;18.90;99.90;;;19.32;nan;99164.25;4985517;28;21071;-65
2023/08/01 07:43:44;;;;;;;0.80;0.77;;;19.00;99.90;;;19.37;nan;99166.31;4989470;28;20642;-65
2023/08/01 07:46:11;;;;;;;3.07;1.40;;;19.00;99.90;;;19.46;nan;99178.34;4986390;28;20643;-65
2023/08/01 07:48:39;;;;;;;1.00;1.00;;;19.10;99.90;;;19.49;nan;99182.38;4995084;28;20646;-66
2023/08/01 07:51:07;;;;;;;1.23;1.10;;;19.10;99.90;;;19.53;nan;99191.56;4987925;28;20655;-64
2023/08/01 07:53:34;;;;;;;0.70;0.70;;;19.10;99.90;;;19.57;nan;99190.16;4990779;28;21007;-66
2023/08/01 07:56:02;;;;;;;1.37;1.23;;;19.20;99.90;;;19.59;nan;99196.84;4986857;28;20635;-64
2023/08/01 07:58:30;;;;;;;1.10;1.07;;;19.20;99.90;;;19.55;nan;99197.47;4990563;28;20646;-67
2023/08/01 08:00:57;;;;;;;1.10;1.10;;;19.20;99.90;;;19.55;nan;99206.22;4989913;28;20642;-64
2023/08/01 08:03:24;;;;;;;0.97;0.97;;;19.20;99.90;;;19.56;nan;99209.69;4993294;28;20643;-66
2023/08/01 08:05:51;;;;;;;2.50;1.10;;;19.20;99.90;;;19.60;nan;99208.25;4989531;28;20635;-66
2023/08/01 08:08:18;;;;;;;1.17;1.17;;;19.30;99.90;;;19.62;nan;99204.41;4995220;28;20675;-66
2023/08/01 08:10:45;;;;;;;1.20;1.10;;;19.30;99.90;;;19.65;nan;99211.13;4994741;28;20630;-67
2023/08/01 08:13:12;;;;;;;1.17;0.87;;;19.30;99.90;;;19.71;nan;99211.13;4992122;28;20645;-65
2023/08/01 08:15:39;;;;;;;1.10;1.10;;;19.40;99.90;;;19.78;nan;99216.44;5001281;28;20648;-65
2023/08/01 08:18:06;;;;;;;1.17;1.07;;;19.40;99.90;;;19.84;nan;99219.06;4995322;28;20657;-66
2023/08/01 08:20:42;;;;;;;0.70;0.70;;;19.50;99.90;;;19.83;nan;99225.38;4993953;28;20706;-65
2023/08/01 08:23:10;;;;;;;0.60;0.60;;;19.50;99.90;;;19.91;nan;99227.03;4993821;28;20700;-66
2023/08/01 08:25:37;;;;;;;1.17;1.07;;;19.60;99.90;;;19.96;nan;99225.38;4990130;28;20649;-66
2023/08/01 08:28:04;;;;;;;0.60;0.60;;;19.60;99.90;;;19.98;nan;99220.69;4991210;28;21227;-66
2023/08/01 08:30:31;;;;;;;0.80;0.60;;;19.60;99.90;;;19.97;nan;99215.59;4993845;28;20703;-68
2023/08/01 08:33:03;;;;;;;0.60;0.60;;;19.60;99.90;;;19.93;nan;99214.41;4999359;28;20641;-64
2023/08/01 08:35:31;;;;;;;0.50;0.50;;;19.60;99.90;;;19.92;nan;99215.41;4989158;28;21204;-68
2023/08/01 08:38:06;;;;;;;0.53;0.53;;;19.60;99.90;;;20.22;nan;99215.81;4993619;28;20662;-65
2023/08/01 08:40:33;;;;;;;0.50;0.50;;;19.80;99.90;;;20.92;nan;99218.47;5003407;28;20652;-66
2023/08/01 08:43:05;;;;;;;0.57;0.57;;;20.50;99.90;;;21.27;nan;99222.44;4993700;28;20650;-66
2023/08/01 08:45:35;;;;;;;0.40;0.40;;;20.90;99.90;;;21.44;nan;99228.03;4990471;28;20626;-65
2023/08/01 08:48:13;;;;;;;0.40;0.40;;;21.10;99.90;;;21.53;nan;99214.28;4996638;28;20685;-65
2023/08/01 08:50:41;;;;;;;0.40;0.40;;;21.10;99.90;;;21.82;nan;99212.03;4988541;28;20648;-66
2023/08/01 08:53:12;;;;;;;1.20;0.40;;;21.40;99.90;;;22.57;nan;99222.41;4997796;28;20652;-66
2023/08/01 08:55:40;;;;;;;0.60;0.60;;;21.90;99.90;;;24.21;nan;99214.81;4992838;28;20629;-66
2023/08/01 08:58:08;;;;;;;0.40;0.40;;;23.60;99.90;;;25.16;nan;99218.72;4985230;28;20680;-68
2023/08/01 09:00:37;;;;;;;0.90;0.60;;;24.60;99.90;;;26.34;nan;99232.00;4990213;28;20638;-67
2023/08/01 09:03:05;;;;;;;0.40;0.40;;;25.60;99.90;;;27.12;nan;99234.38;4989395;28;20641;-65
2023/08/01 09:05:47;;;;;;;1.43;1.33;;;26.40;99.90;;;27.71;nan;99237.97;4991863;28;21026;-67
2023/08/01 09:08:20;;;;;;;0.80;0.80;;;26.80;99.90;;;27.92;nan;99234.38;5000053;28;21241;-67
2023/08/01 09:10:48;;;;;;;0.40;0.40;;;27.10;99.90;;;27.85;nan;99231.09;4989670;28;20696;-67
2023/08/01 09:13:15;;;;;;;0.50;0.50;;;27.20;99.90;;;27.65;nan;99227.19;4996422;28;20642;-65
2023/08/01 09:15:43;;;;;;;0.40;0.40;;;27.00;99.90;;;27.48;nan;99226.50;4993262;28;20656;-67
2023/08/01 09:18:11;;;;;;;0.50;0.50;;;26.90;99.90;;;27.12;nan;99229.00;4987376;28;20731;-65
2023/08/01 09:20:47;;;;;;;0.57;0.57;;;26.60;99.90;;;26.74;nan;99243.28;4988275;28;21252;-64
2023/08/01 09:23:16;;;;;;;2.00;0.60;;;26.30;99.90;;;26.38;nan;99233.94;4990583;28;20637;-68
2023/08/01 09:25:44;;;;;;;0.60;0.60;;;26.00;99.90;;;26.03;nan;99236.03;4990159;28;21166;-69
2023/08/01 09:28:23;;;;;;;0.60;0.60;;;25.70;99.90;;;25.63;nan;99233.50;4992996;28;20674;-69
2023/08/01 09:30:55;;;;;;;0.40;0.40;;;25.30;99.90;;;25.43;nan;99235.00;4993115;28;21199;-69
2023/08/01 09:33:22;;;;;;;0.77;0.77;;;25.10;99.90;;;25.28;nan;99232.81;4996267;28;20655;-67
2023/08/01 09:35:51;;;;;;;1.27;0.70;;;24.90;99.90;;;25.24;nan;99237.00;4984716;28;20635;-72
2023/08/01 09:38:18;;;;;;;0.80;0.67;;;24.80;99.90;;;25.25;nan;99241.31;4990167;28;20704;-66
2023/08/01 09:40:46;;;;;;;0.70;0.70;;;24.80;99.90;;;25.28;nan;99232.81;4991398;28;21045;-66
2023/08/01 09:43:14;;;;;;;0.50;0.50;;;24.90;99.90;;;25.27;nan;99233.88;5000548;28;21032;-67
2023/08/01 09:45:54;;;;;;;0.60;0.60;;;24.90;99.90;;;25.13;nan;99240.56;4992215;28;20650;-68
2023/08/01 09:48:27;;;;;;;0.60;0.60;;;24.70;99.90;;;25.00;nan;99246.16;4990363;28;20678;-69
2023/08/01 09:51:14;;;;;;;0.63;0.63;;;24.60;99.90;;;24.84;nan;99245.03;4985647;28;20634;-67
2023/08/01 09:53:52;;;;;;;0.50;0.50;;;24.50;99.90;;;24.72;nan;99254.06;4994674;28;20643;-68
2023/08/01 09:56:28;;;;;;;0.60;0.60;;;24.30;99.90;;;24.66;nan;99251.28;4996033;28;21281;-68
2023/08/01 09:58:56;;;;;;;1.57;0.80;;;24.30;99.90;;;24.67;nan;99252.94;4996152;28;20638;-68
2023/08/01 10:01:24;;;;;;;0.67;0.67;;;24.30;99.90;;;24.73;nan;99261.84;4990347;28;20642;-68
2023/08/01 10:03:53;;;;;;;0.70;0.70;;;24.30;99.90;;;24.94;nan;99253.25;4997928;28;20630;-68
2023/08/01 10:06:23;;;;;;;0.60;0.60;;;24.60;99.90;;;25.40;nan;99260.28;4992013;28;20689;-69
2023/08/01 10:08:52;;;;;;;0.50;0.50;;;25.10;99.90;;;25.93;nan;99260.75;4998554;28;20658;-68
2023/08/01 10:11:22;;;;;;;0.53;0.53;;;25.70;99.90;;;26.60;nan;99266.84;4994550;28;20634;-69
2023/08/01 10:13:50;;;;;;;0.60;0.60;;;26.50;99.90;;;27.34;nan;99265.44;4988954;28;20634;-69
2023/08/01 10:16:17;;;;;;;0.83;0.70;;;27.20;99.90;;;27.94;nan;99275.94;4996538;28;20664;-69
2023/08/01 10:18:44;;;;;;;0.70;0.70;;;27.80;99.90;;;27.68;nan;99266.84;4985004;28;21273;-69
2023/08/01 10:21:16;;;;;;;0.80;0.80;;;27.50;99.90;;;27.19;nan;99264.44;4986966;28;21205;-68
2023/08/01 10:23:45;;;;;;;0.63;0.63;;;27.00;99.90;;;26.74;nan;99270.03;4993064;28;20650;-68
2023/08/01 10:26:13;;;;;;;0.60;0.60;;;26.40;99.90;;;26.34;nan;99274.78;4995771;28;20643;-68
2023/08/01 10:28:49;;;;;;;0.60;0.60;;;26.00;99.90;;;26.14;nan;99273.41;4990080;28;20674;-68
2023/08/01 10:31:18;;;;;;;0.70;0.70;;;25.80;99.90;;;25.98;nan;99270.72;4991384;28;20630;-68
2023/08/01 10:33:48;;;;;;;0.87;0.80;;;25.60;99.90;;;25.89;nan;99272.16;4991470;28;20634;-68
2023/08/01 10:36:22;;;;;;;0.50;0.50;;;25.50;99.90;;;25.71;nan;99264.34;4997731;28;20657;-65